createdAt,value
2022-10-18T00:02:07.591Z,4.47
2022-10-18T00:04:34.361Z,3.95
2022-10-18T00:07:00.921Z,3.80
2022-10-18T00:09:27.755Z,4.13
2022-10-18T00:11:55.407Z,3.95
2022-10-18T00:14:22.620Z,4.15
2022-10-18T00:16:49.174Z,4.20
2022-10-18T00:19:15.778Z,3.97
2022-10-18T00:24:11.355Z,5.22
2022-10-18T00:26:37.881Z,4.40
2022-10-18T00:29:05.844Z,4.45
2022-10-18T00:31:36.184Z,3.83
2022-10-18T00:34:05.683Z,5.37
2022-10-18T00:36:34.261Z,4.50
2022-10-18T00:39:02.006Z,4.55
2022-10-18T00:41:31.941Z,3.78
2022-10-18T00:43:59.774Z,4.63
2022-10-18T00:46:32.089Z,4.68
2022-10-18T00:49:01.087Z,4.75
2022-10-18T00:51:34.033Z,4.45
2022-10-18T00:54:00.602Z,3.90
2022-10-18T00:56:27.529Z,4.22
2022-10-18T00:58:54.172Z,3.75
2022-10-18T01:01:24.428Z,3.85
2022-10-18T01:03:54.617Z,3.58
2022-10-18T01:06:21.374Z,3.85
2022-10-18T01:09:17.970Z,4.25
2022-10-18T01:12:16.341Z,4.20
2022-10-18T01:14:47.088Z,3.40
2022-10-18T01:17:20.308Z,4.03
2022-10-18T01:20:31.194Z,4.32
2022-10-18T01:23:19.078Z,3.92
2022-10-18T01:26:23.310Z,3.83
2022-10-18T01:29:05.238Z,4.30
2022-10-18T01:31:39.339Z,3.40
2022-10-18T01:34:10.241Z,4.72
2022-10-18T01:36:41.175Z,4.05
2022-10-18T01:39:19.749Z,3.90
2022-10-18T01:41:49.211Z,3.90
2022-10-18T01:44:20.646Z,4.07
2022-10-18T01:46:48.161Z,4.40
2022-10-18T01:49:14.786Z,3.58
2022-10-18T01:51:41.398Z,3.78
2022-10-18T01:54:10.058Z,3.92
2022-10-18T01:56:45.721Z,4.05
2022-10-18T01:59:24.146Z,3.95
2022-10-18T02:01:59.649Z,4.38
2022-10-18T02:04:35.170Z,4.35
2022-10-18T02:07:43.697Z,4.57
2022-10-18T02:10:18.067Z,4.22
2022-10-18T02:12:46.673Z,5.65
2022-10-18T02:15:17.309Z,4.63
2022-10-18T02:17:45.227Z,4.90
2022-10-18T02:20:16.026Z,4.93
2022-10-18T02:22:45.956Z,5.30
2022-10-18T02:25:17.903Z,5.80
2022-10-18T02:27:44.723Z,5.80
2022-10-18T02:30:12.137Z,6.43
2022-10-18T02:32:44.680Z,5.60
2022-10-18T02:35:16.423Z,5.95
2022-10-18T02:37:45.336Z,6.28
2022-10-18T02:40:12.086Z,5.50
2022-10-18T02:42:54.571Z,6.22
2022-10-18T02:45:21.582Z,5.60
2022-10-18T02:47:48.232Z,6.13
2022-10-18T02:50:15.120Z,6.10
2022-10-18T02:52:41.773Z,5.55
2022-10-18T02:55:09.363Z,5.30
2022-10-18T02:57:36.601Z,5.20
2022-10-18T03:00:05.862Z,5.55
2022-10-18T03:02:32.472Z,5.75
2022-10-18T03:04:59.073Z,6.15
2022-10-18T03:07:25.842Z,7.85
2022-10-18T03:09:52.442Z,9.13
2022-10-18T03:12:18.962Z,8.95
2022-10-18T03:14:45.557Z,8.13
2022-10-18T03:17:12.201Z,6.60
2022-10-18T03:19:38.798Z,5.78
2022-10-18T03:22:05.806Z,5.40
2022-10-18T03:24:32.458Z,5.30
2022-10-18T03:26:59.047Z,5.15
2022-10-18T03:29:25.634Z,4.90
2022-10-18T03:31:52.183Z,3.95
2022-10-18T03:34:18.756Z,4.18
2022-10-18T03:36:45.304Z,4.63
2022-10-18T03:39:12.757Z,4.05
2022-10-18T03:41:39.363Z,5.75
2022-10-18T03:44:05.913Z,5.45
2022-10-18T03:46:32.478Z,4.05
2022-10-18T03:48:59.037Z,4.72
2022-10-18T03:51:25.531Z,5.25
2022-10-18T03:53:52.092Z,4.70
2022-10-18T03:56:18.639Z,5.68
2022-10-18T03:58:45.166Z,5.82
2022-10-18T04:01:11.991Z,5.45
2022-10-18T04:03:38.663Z,5.85
2022-10-18T04:06:05.245Z,6.10
2022-10-18T04:08:31.810Z,5.20
2022-10-18T04:10:58.360Z,5.40
2022-10-18T04:13:24.893Z,5.88
2022-10-18T04:15:51.510Z,5.43
2022-10-18T04:18:18.168Z,5.40
2022-10-18T04:20:44.694Z,5.30
2022-10-18T04:23:11.291Z,4.85
2022-10-18T04:25:37.907Z,6.18
2022-10-18T04:28:04.727Z,5.90
2022-10-18T04:30:31.296Z,4.93
2022-10-18T04:32:57.802Z,4.88
2022-10-18T04:35:25.954Z,5.22
2022-10-18T04:37:52.493Z,5.00
2022-10-18T04:40:19.937Z,5.10
2022-10-18T04:42:47.342Z,4.80
2022-10-18T04:45:13.915Z,4.97
2022-10-18T04:47:40.495Z,5.25
2022-10-18T04:50:07.467Z,4.88
2022-10-18T04:52:34.065Z,5.32
2022-10-18T04:55:00.580Z,5.60
2022-10-18T04:57:27.742Z,5.20
2022-10-18T04:59:54.338Z,5.10
2022-10-18T05:02:20.909Z,5.55
2022-10-18T05:04:47.472Z,4.95
2022-10-18T05:07:14.321Z,4.93
2022-10-18T05:09:40.925Z,4.90
2022-10-18T05:12:07.501Z,5.07
2022-10-18T05:14:34.087Z,4.70
2022-10-18T05:17:00.626Z,4.70
2022-10-18T05:19:27.222Z,4.65
2022-10-18T05:21:53.799Z,5.32
2022-10-18T05:24:21.991Z,5.60
2022-10-18T05:26:50.907Z,4.93
2022-10-18T05:29:17.616Z,4.53
2022-10-18T05:31:44.235Z,4.70
2022-10-18T05:34:10.765Z,5.78
2022-10-18T05:36:37.358Z,5.70
2022-10-18T05:39:05.366Z,5.25
2022-10-18T05:41:32.065Z,5.07
2022-10-18T05:43:58.724Z,5.93
2022-10-18T05:46:25.368Z,6.18
2022-10-18T05:48:52.205Z,5.93
2022-10-18T05:51:19.061Z,5.82
2022-10-18T05:53:45.654Z,6.80
2022-10-18T05:56:12.189Z,5.55
2022-10-18T05:58:38.865Z,7.25
2022-10-18T06:01:06.272Z,7.40
2022-10-18T06:03:33.529Z,6.78
2022-10-18T06:06:05.098Z,5.43
2022-10-18T06:08:32.350Z,6.07
2022-10-18T06:10:59.325Z,6.28
2022-10-18T06:13:26.432Z,6.05
2022-10-18T06:15:57.446Z,5.95
2022-10-18T06:18:24.011Z,7.00
2022-10-18T06:20:56.501Z,5.97
2022-10-18T06:23:23.036Z,5.10
2022-10-18T06:25:49.593Z,5.10
2022-10-18T06:28:16.111Z,5.70
2022-10-18T06:30:42.770Z,6.10
2022-10-18T06:33:11.842Z,7.32
2022-10-18T06:35:38.385Z,7.03
2022-10-18T06:38:06.218Z,6.43
2022-10-18T06:40:37.977Z,6.47
2022-10-18T06:43:19.919Z,6.40
2022-10-18T06:45:47.052Z,6.75
2022-10-18T06:48:13.639Z,6.25
2022-10-18T06:50:40.298Z,6.82
2022-10-18T06:53:08.617Z,6.78
2022-10-18T06:55:36.105Z,6.45
2022-10-18T06:58:02.814Z,6.57
2022-10-18T07:00:29.507Z,6.47
2022-10-18T07:02:58.155Z,6.45
2022-10-18T07:05:25.038Z,7.10
2022-10-18T07:07:54.296Z,6.90
2022-10-18T07:10:25.176Z,4.82
2022-10-18T07:12:56.026Z,5.82
2022-10-18T07:15:29.969Z,6.32
2022-10-18T07:17:56.997Z,7.00
2022-10-18T07:20:23.655Z,6.70
2022-10-18T07:22:50.287Z,6.05
2022-10-18T07:25:16.905Z,6.57
2022-10-18T07:27:43.581Z,7.28
2022-10-18T07:30:11.141Z,7.63
2022-10-18T07:32:37.755Z,8.10
2022-10-18T07:35:04.634Z,7.18
2022-10-18T07:37:31.911Z,8.57
2022-10-18T07:39:58.715Z,9.05
2022-10-18T07:42:25.290Z,9.63
2022-10-18T07:44:51.903Z,11.98
2022-10-18T07:47:18.470Z,11.80
2022-10-18T07:49:45.057Z,10.82
2022-10-18T07:52:11.727Z,12.35
2022-10-18T07:54:38.387Z,12.70
2022-10-18T07:57:05.182Z,12.10
2022-10-18T07:59:31.739Z,12.35
2022-10-18T08:01:58.360Z,11.98
2022-10-18T08:04:24.977Z,12.95
2022-10-18T08:06:51.790Z,12.93
2022-10-18T08:09:18.335Z,11.25
2022-10-18T08:11:45.079Z,11.88
2022-10-18T08:14:11.635Z,11.82
2022-10-18T08:16:38.210Z,13.15
2022-10-18T08:19:04.798Z,12.55
2022-10-18T08:21:31.772Z,12.93
2022-10-18T08:23:58.412Z,13.05
2022-10-18T08:26:25.136Z,11.75
2022-10-18T08:29:10.399Z,13.13
2022-10-18T08:31:38.310Z,11.77
2022-10-18T08:34:04.970Z,10.85
2022-10-18T08:36:31.566Z,10.68
2022-10-18T08:38:58.130Z,11.27
2022-10-18T08:41:36.897Z,12.23
2022-10-18T08:44:26.366Z,12.32
2022-10-18T08:47:04.069Z,10.65
2022-10-18T08:49:47.099Z,10.68
2022-10-18T08:52:21.610Z,12.20
2022-10-18T08:54:59.545Z,13.05
2022-10-18T08:57:26.405Z,11.88
2022-10-18T08:59:53.156Z,11.70
2022-10-18T09:02:40.897Z,11.32
2022-10-18T09:05:28.401Z,12.80
2022-10-18T09:08:36.459Z,11.45
2022-10-18T09:11:15.144Z,10.25
2022-10-18T09:14:17.489Z,12.00
2022-10-18T09:17:05.852Z,11.98
2022-10-18T09:22:50.810Z,11.95
2022-10-18T09:25:20.909Z,11.07
2022-10-18T09:27:53.606Z,11.05
2022-10-18T09:30:41.736Z,10.95
2022-10-18T09:33:32.993Z,8.70
2022-10-18T09:38:33.520Z,10.85
2022-10-18T09:41:16.715Z,10.10
2022-10-18T09:43:52.608Z,9.05
2022-10-18T09:46:21.411Z,11.85
2022-10-18T09:49:01.774Z,9.68
2022-10-18T09:51:35.473Z,8.80
2022-10-18T09:54:14.026Z,10.68
2022-10-18T09:57:07.845Z,10.93
2022-10-18T09:59:42.684Z,10.63
2022-10-18T10:02:18.141Z,9.93
2022-10-18T10:04:45.054Z,10.25
2022-10-18T10:07:19.820Z,9.35
2022-10-18T10:10:03.938Z,10.25
2022-10-18T10:12:32.379Z,10.75
2022-10-18T10:15:23.073Z,10.05
2022-10-18T10:18:31.415Z,10.52
2022-10-18T10:21:00.856Z,10.45
2022-10-18T10:23:36.122Z,9.90
2022-10-18T10:26:20.221Z,10.80
2022-10-18T10:28:48.867Z,9.55
2022-10-18T10:31:18.821Z,8.75
2022-10-18T10:33:47.563Z,9.35
2022-10-18T10:36:19.127Z,8.75
2022-10-18T10:38:45.784Z,9.70
2022-10-18T10:41:23.378Z,11.00
2022-10-18T10:43:50.957Z,10.90
2022-10-18T10:46:23.049Z,10.98
2022-10-18T10:49:04.175Z,11.43
2022-10-18T10:51:40.192Z,12.25
2022-10-18T10:54:18.452Z,11.10
2022-10-18T10:56:58.020Z,11.88
2022-10-18T10:59:27.803Z,10.82
2022-10-18T11:02:17.753Z,11.02
2022-10-18T11:04:46.373Z,8.45
2022-10-18T11:07:36.514Z,8.25
2022-10-18T11:10:12.350Z,9.77
2022-10-18T11:12:47.637Z,7.72
2022-10-18T11:15:22.264Z,7.95
2022-10-18T11:18:07.711Z,8.98
2022-10-18T11:20:42.590Z,6.82
2022-10-18T11:23:13.514Z,5.82
2022-10-18T11:25:55.676Z,6.18
2022-10-18T11:28:32.123Z,5.75
2022-10-18T11:31:01.512Z,4.13
2022-10-18T11:34:08.152Z,4.40
2022-10-18T11:37:27.228Z,5.10
2022-10-18T11:39:57.181Z,5.88
2022-10-18T11:42:55.490Z,5.43
2022-10-18T11:48:10.523Z,5.00
2022-10-18T11:50:53.938Z,4.88
2022-10-18T11:53:35.034Z,4.93
2022-10-18T11:56:25.183Z,4.63
2022-10-18T11:59:05.837Z,5.20
2022-10-18T12:02:04.867Z,4.53
2022-10-18T12:04:40.927Z,5.10
2022-10-18T12:07:24.694Z,4.97
2022-10-18T12:09:55.847Z,5.15
2022-10-18T12:12:29.067Z,5.10
2022-10-18T12:14:57.415Z,5.03
2022-10-18T12:17:48.887Z,4.47
2022-10-18T12:20:25.683Z,4.25
2022-10-18T12:23:12.994Z,3.42
2022-10-18T12:25:44.858Z,3.08
2022-10-18T12:28:37.435Z,2.85
2022-10-18T12:31:13.540Z,2.88
2022-10-18T12:33:44.659Z,3.45
2022-10-18T12:36:52.019Z,3.38
2022-10-18T12:39:37.575Z,2.95
2022-10-18T12:42:29.247Z,3.05
2022-10-18T12:45:19.994Z,2.83
2022-10-18T12:50:38.063Z,3.50
2022-10-18T12:53:26.736Z,2.95
2022-10-18T12:55:54.041Z,3.47
2022-10-18T12:58:20.616Z,3.70
2022-10-18T13:00:47.732Z,3.58
2022-10-18T13:03:16.535Z,3.95
2022-10-18T13:05:54.834Z,3.25
2022-10-18T13:08:31.715Z,3.97
2022-10-18T13:11:01.372Z,3.90
2022-10-18T13:13:45.436Z,3.75
2022-10-18T13:16:33.906Z,3.70
2022-10-18T13:19:26.044Z,4.50
2022-10-18T13:22:31.353Z,3.85
2022-10-18T13:25:14.133Z,3.65
2022-10-18T13:27:49.805Z,3.22
2022-10-18T13:30:31.414Z,4.07
2022-10-18T13:33:22.953Z,3.47
2022-10-18T13:35:50.336Z,3.42
2022-10-18T13:38:32.145Z,3.10
2022-10-18T13:41:15.997Z,3.50
2022-10-18T13:44:04.223Z,3.35
2022-10-18T13:46:33.748Z,2.72
2022-10-18T13:49:20.551Z,3.60
2022-10-18T13:52:02.018Z,2.83
2022-10-18T13:54:41.061Z,3.70
2022-10-18T13:57:50.253Z,3.40
2022-10-18T14:00:16.763Z,3.60
2022-10-18T14:03:22.190Z,3.55
2022-10-18T14:06:15.007Z,3.50
2022-10-18T14:09:06.162Z,3.47
2022-10-18T14:11:46.284Z,3.15
2022-10-18T14:14:36.506Z,3.40
2022-10-18T14:17:28.214Z,3.80
2022-10-18T14:20:15.368Z,4.32
2022-10-18T14:22:48.212Z,3.80
2022-10-18T14:25:35.805Z,4.00
2022-10-18T14:28:13.015Z,3.88
2022-10-18T14:31:00.041Z,4.07
2022-10-18T14:33:28.384Z,4.50
2022-10-18T14:36:19.479Z,5.45
2022-10-18T14:38:45.978Z,5.88
2022-10-18T14:41:18.191Z,4.10
2022-10-18T14:43:44.896Z,3.75
2022-10-18T14:46:19.146Z,4.35
2022-10-18T14:49:00.133Z,4.10
2022-10-18T14:53:55.235Z,5.22
2022-10-18T14:56:27.599Z,5.90
2022-10-18T14:58:56.101Z,5.78
2022-10-18T15:01:27.475Z,5.57
2022-10-18T15:04:08.029Z,5.97
2022-10-18T15:06:34.602Z,5.07
2022-10-18T15:09:04.297Z,4.75
2022-10-18T15:11:31.637Z,5.07
2022-10-18T15:14:08.719Z,6.10
2022-10-18T15:16:38.621Z,5.18
2022-10-18T15:19:42.811Z,14.18
2022-10-18T15:25:05.386Z,7.68
2022-10-18T15:27:35.750Z,11.55
2022-10-18T15:30:15.711Z,6.97
2022-10-18T15:33:00.246Z,5.97
2022-10-18T15:35:30.210Z,8.95
2022-10-18T15:38:00.102Z,8.93
2022-10-18T15:40:30.393Z,7.68
2022-10-18T15:43:00.129Z,8.68
2022-10-18T15:45:32.042Z,7.25
2022-10-18T15:48:16.850Z,6.47
2022-10-18T15:50:48.369Z,6.63
2022-10-18T15:53:21.016Z,6.70
2022-10-18T15:55:50.208Z,7.30
2022-10-18T15:58:29.913Z,7.88
2022-10-18T16:01:00.446Z,7.35
2022-10-18T16:03:28.397Z,7.82
2022-10-18T16:06:06.595Z,5.97
2022-10-18T16:08:40.493Z,8.20
2022-10-18T16:11:12.844Z,6.20
2022-10-18T16:13:39.442Z,5.82
2022-10-18T16:16:06.170Z,5.90
2022-10-18T16:18:33.278Z,5.22
2022-10-18T16:21:02.014Z,4.82
2022-10-18T16:23:29.302Z,4.63
2022-10-18T16:25:56.063Z,4.50
2022-10-18T16:28:25.226Z,4.80
2022-10-18T16:31:00.330Z,4.90
2022-10-18T16:33:28.024Z,5.13
2022-10-18T16:35:54.662Z,4.97
2022-10-18T16:38:32.673Z,5.32
2022-10-18T16:41:02.441Z,5.47
2022-10-18T16:43:29.016Z,4.63
2022-10-18T16:45:55.705Z,5.45
2022-10-18T16:48:24.353Z,5.00
2022-10-18T16:50:54.095Z,4.57
2022-10-18T16:53:23.445Z,5.10
2022-10-18T16:55:55.646Z,7.03
2022-10-18T17:00:55.264Z,7.00
2022-10-18T17:03:22.338Z,6.85
2022-10-18T17:05:49.175Z,7.47
2022-10-18T17:08:21.198Z,7.55
2022-10-18T17:10:49.704Z,9.88
2022-10-18T17:13:16.663Z,11.60
2022-10-18T17:15:44.427Z,10.95
2022-10-18T17:18:23.482Z,10.90
2022-10-18T17:20:50.351Z,10.25
2022-10-18T17:23:16.946Z,9.15
2022-10-18T17:25:57.464Z,9.07
2022-10-18T17:28:31.448Z,10.50
2022-10-18T17:30:58.082Z,11.75
2022-10-18T17:33:24.697Z,12.05
2022-10-18T17:35:51.263Z,12.13
2022-10-18T17:38:17.883Z,11.18
2022-10-18T17:40:44.518Z,11.65
2022-10-18T17:43:13.367Z,10.15
2022-10-18T17:45:51.085Z,9.60
2022-10-18T17:48:18.010Z,11.25
2022-10-18T17:50:44.765Z,10.00
2022-10-18T17:53:12.937Z,8.98
2022-10-18T17:55:40.384Z,11.82
2022-10-18T17:58:06.964Z,15.50
2022-10-18T18:00:33.585Z,12.00
2022-10-18T18:03:01.055Z,8.27
2022-10-18T18:05:33.172Z,6.55
2022-10-18T18:08:03.888Z,21.13
2022-10-18T18:10:33.493Z,19.25
2022-10-18T18:13:00.565Z,20.40
2022-10-18T18:15:28.378Z,15.75
2022-10-18T18:17:58.428Z,11.38
2022-10-18T18:20:26.068Z,8.63
2022-10-18T18:22:53.085Z,9.10
2022-10-18T18:25:19.715Z,9.30
2022-10-18T18:27:46.290Z,9.13
2022-10-18T18:30:12.955Z,11.60
2022-10-18T18:32:39.588Z,13.40
2022-10-18T18:35:06.485Z,10.57
2022-10-18T18:37:33.032Z,12.63
2022-10-18T18:39:59.551Z,14.35
2022-10-18T18:42:26.194Z,12.43
2022-10-18T18:44:52.729Z,13.70
2022-10-18T18:47:21.667Z,12.88
2022-10-18T18:49:49.341Z,11.45
2022-10-18T18:52:15.874Z,10.95
2022-10-18T18:54:42.491Z,9.48
2022-10-18T18:57:09.058Z,7.97
2022-10-18T18:59:35.675Z,9.48
2022-10-18T19:02:02.219Z,10.50
2022-10-18T19:04:29.081Z,10.45
2022-10-18T19:06:55.845Z,9.38
2022-10-18T19:09:22.918Z,8.02
2022-10-18T19:11:55.136Z,7.32
2022-10-18T19:14:24.905Z,8.43
2022-10-18T19:16:54.306Z,8.07
2022-10-18T19:19:23.522Z,8.27
2022-10-18T19:21:56.849Z,7.38
2022-10-18T19:24:25.072Z,8.25
2022-10-18T19:26:55.830Z,6.70
2022-10-18T19:29:31.783Z,6.68
2022-10-18T19:32:00.421Z,5.50
2022-10-18T19:34:29.980Z,6.15
2022-10-18T19:36:57.279Z,9.75
2022-10-18T19:39:25.133Z,7.57
2022-10-18T19:41:56.757Z,7.13
2022-10-18T19:44:25.450Z,6.55
2022-10-18T19:46:52.115Z,7.70
2022-10-18T19:49:18.891Z,7.60
2022-10-18T19:51:45.956Z,7.32
2022-10-18T19:54:15.087Z,8.98
2022-10-18T19:56:42.105Z,6.70
2022-10-18T19:59:10.045Z,6.28
2022-10-18T20:01:37.123Z,6.38
2022-10-18T20:04:04.780Z,6.03
2022-10-18T20:06:31.829Z,6.07
2022-10-18T20:08:58.724Z,5.75
2022-10-18T20:11:27.442Z,4.88
2022-10-18T20:13:54.784Z,3.97
2022-10-18T20:16:28.162Z,3.22
2022-10-18T20:18:56.865Z,3.60
2022-10-18T20:21:23.654Z,2.50
2022-10-18T20:23:50.266Z,1.73
2022-10-18T20:26:20.462Z,1.58
2022-10-18T20:28:55.758Z,1.60
2022-10-18T20:31:38.867Z,1.45
2022-10-18T20:34:08.404Z,1.70
2022-10-18T20:36:35.689Z,1.80
2022-10-18T20:39:04.828Z,1.60
2022-10-18T20:41:34.628Z,2.03
2022-10-18T20:44:03.843Z,2.30
2022-10-18T20:46:33.401Z,2.47
2022-10-18T20:49:00.976Z,2.80
2022-10-18T20:51:28.015Z,2.83
2022-10-18T20:53:54.842Z,3.00
2022-10-18T20:56:25.198Z,2.70
2022-10-18T20:58:53.691Z,2.90
2022-10-18T21:01:22.937Z,2.50
2022-10-18T21:03:51.794Z,2.50
2022-10-18T21:06:21.127Z,2.50
2022-10-18T21:08:51.508Z,1.98
2022-10-18T21:11:18.143Z,3.60
2022-10-18T21:13:49.939Z,3.50
2022-10-18T21:16:16.523Z,5.00
2022-10-18T21:18:43.018Z,4.25
2022-10-18T21:21:19.023Z,3.97
2022-10-18T21:23:46.400Z,3.92
2022-10-18T21:26:17.317Z,4.45
2022-10-18T21:28:43.941Z,3.67
2022-10-18T21:31:19.349Z,2.83
2022-10-18T21:33:46.778Z,2.30
2022-10-18T21:36:15.829Z,1.92
2022-10-18T21:38:45.750Z,2.20
2022-10-18T21:41:14.630Z,2.03
2022-10-18T21:43:43.681Z,1.90
2022-10-18T21:46:11.301Z,2.20
2022-10-18T21:48:38.806Z,1.83
2022-10-18T21:51:07.405Z,1.77
2022-10-18T21:53:34.560Z,2.05
2022-10-18T21:56:06.810Z,2.00
2022-10-18T21:58:35.017Z,2.30
2022-10-18T22:01:02.829Z,2.53
2022-10-18T22:03:29.421Z,2.30
2022-10-18T22:06:07.983Z,2.40
2022-10-18T22:08:35.531Z,2.72
2022-10-18T22:11:02.546Z,3.08
2022-10-18T22:13:29.261Z,2.42
2022-10-18T22:15:55.910Z,1.48
2022-10-18T22:18:22.477Z,1.50
2022-10-18T22:20:57.206Z,1.92
2022-10-18T22:23:23.983Z,1.83
2022-10-18T22:25:50.634Z,2.20
2022-10-18T22:28:17.352Z,2.67
2022-10-18T22:30:44.107Z,2.97
2022-10-18T22:33:10.710Z,3.20
2022-10-18T22:35:37.273Z,3.13
2022-10-18T22:38:03.908Z,2.85
2022-10-18T22:40:30.471Z,2.22
2022-10-18T22:42:57.034Z,3.38
2022-10-18T22:45:23.673Z,4.10
2022-10-18T22:47:50.310Z,4.30
2022-10-18T22:50:16.844Z,3.75
2022-10-18T22:52:43.480Z,4.15
2022-10-18T22:55:10.013Z,3.60
2022-10-18T22:57:36.642Z,3.83
2022-10-18T23:00:04.127Z,3.60
2022-10-18T23:02:30.811Z,3.85
2022-10-18T23:04:57.450Z,4.30
2022-10-18T23:07:24.004Z,3.55
2022-10-18T23:09:50.572Z,4.38
2022-10-18T23:12:17.158Z,4.82
2022-10-18T23:14:44.580Z,4.88
2022-10-18T23:17:11.178Z,4.72
2022-10-18T23:19:37.759Z,4.18
2022-10-18T23:22:04.320Z,3.90
2022-10-18T23:24:30.914Z,4.88
2022-10-18T23:26:57.477Z,4.53
2022-10-18T23:29:24.117Z,4.32
2022-10-18T23:31:50.626Z,4.80
2022-10-18T23:34:17.233Z,4.80
2022-10-18T23:39:11.324Z,5.03
2022-10-18T23:41:37.912Z,3.95
2022-10-18T23:44:04.580Z,3.53
2022-10-18T23:46:31.239Z,3.90
2022-10-18T23:48:57.790Z,4.72
2022-10-18T23:51:24.331Z,4.75
2022-10-18T23:53:50.874Z,4.40
2022-10-18T23:56:17.419Z,4.75
2022-10-18T23:58:45.181Z,4.45
